createdAt,value
2023-04-10T00:02:24.024Z,2.40
2023-04-10T00:04:51.016Z,2.40
2023-04-10T00:07:17.958Z,2.40
2023-04-10T00:09:44.631Z,2.40
2023-04-10T00:12:11.408Z,2.30
2023-04-10T00:14:38.260Z,2.30
2023-04-10T00:17:04.959Z,2.30
2023-04-10T00:19:31.635Z,2.30
2023-04-10T00:21:58.270Z,2.20
2023-04-10T00:24:25.006Z,2.20
2023-04-10T00:26:51.651Z,2.10
2023-04-10T00:29:19.360Z,2.10
2023-04-10T00:31:46.141Z,2.10
2023-04-10T00:34:14.107Z,2.10
2023-04-10T00:36:40.990Z,2.10
2023-04-10T00:39:09.304Z,2.10
2023-04-10T00:41:35.999Z,2.00
2023-04-10T00:44:03.020Z,2.00
2023-04-10T00:46:31.131Z,2.00
2023-04-10T00:48:58.456Z,2.00
2023-04-10T00:51:26.428Z,2.00
2023-04-10T00:53:54.997Z,2.00
2023-04-10T00:56:24.029Z,2.00
2023-04-10T00:58:50.911Z,2.00
2023-04-10T01:01:18.927Z,1.90
2023-04-10T01:03:46.018Z,1.70
2023-04-10T01:06:31.615Z,1.60
2023-04-10T01:09:27.992Z,1.50
2023-04-10T01:12:08.389Z,1.40
2023-04-10T01:14:59.077Z,1.40
2023-04-10T01:17:31.449Z,1.40
2023-04-10T01:20:14.364Z,1.30
2023-04-10T01:23:26.962Z,1.40
2023-04-10T01:26:01.179Z,1.40
2023-04-10T01:28:43.084Z,1.40
2023-04-10T01:31:16.686Z,1.40
2023-04-10T01:33:59.952Z,1.40
2023-04-10T01:36:31.764Z,1.40
2023-04-10T01:38:59.019Z,1.40
2023-04-10T01:41:27.724Z,1.30
2023-04-10T01:43:56.120Z,1.30
2023-04-10T01:46:24.823Z,1.40
2023-04-10T01:48:53.695Z,1.40
2023-04-10T01:51:21.222Z,1.50
2023-04-10T01:53:49.733Z,1.50
2023-04-10T01:56:22.597Z,1.40
2023-04-10T01:58:50.496Z,1.40
2023-04-10T02:01:29.108Z,1.40
2023-04-10T02:04:08.416Z,1.40
2023-04-10T02:06:53.663Z,1.40
2023-04-10T02:09:50.232Z,1.40
2023-04-10T02:12:22.464Z,1.30
2023-04-10T02:14:50.263Z,1.30
2023-04-10T02:17:23.453Z,1.30
2023-04-10T02:19:54.794Z,1.30
2023-04-10T02:22:23.044Z,1.30
2023-04-10T02:24:50.158Z,1.30
2023-04-10T02:27:27.941Z,1.30
2023-04-10T02:29:54.739Z,1.30
2023-04-10T02:32:21.649Z,1.20
2023-04-10T02:34:48.358Z,1.30
2023-04-10T02:37:15.054Z,1.20
2023-04-10T02:39:42.033Z,1.20
2023-04-10T02:42:08.815Z,1.10
2023-04-10T02:44:36.777Z,1.00
2023-04-10T02:47:04.104Z,1.00
2023-04-10T02:49:35.014Z,0.90
2023-04-10T02:52:09.004Z,1.00
2023-04-10T02:54:35.702Z,1.00
2023-04-10T02:57:02.442Z,1.00
2023-04-10T02:59:29.146Z,0.90
2023-04-10T03:01:55.998Z,0.80
2023-04-10T03:04:22.946Z,0.80
2023-04-10T03:06:49.650Z,0.60
2023-04-10T03:09:16.944Z,0.60
2023-04-10T03:11:43.583Z,0.60
2023-04-10T03:14:10.226Z,0.50
2023-04-10T03:16:37.136Z,0.60
2023-04-10T03:19:04.565Z,0.60
2023-04-10T03:21:31.921Z,0.60
2023-04-10T03:23:58.659Z,0.70
2023-04-10T03:26:25.526Z,0.60
2023-04-10T03:28:52.758Z,0.50
2023-04-10T03:31:20.437Z,0.50
2023-04-10T03:33:47.215Z,0.50
2023-04-10T03:36:14.126Z,0.50
2023-04-10T03:38:41.315Z,0.50
2023-04-10T03:41:09.125Z,0.50
2023-04-10T03:43:35.980Z,0.50
2023-04-10T03:46:04.129Z,0.50
2023-04-10T03:48:32.362Z,0.50
2023-04-10T03:50:59.212Z,0.40
2023-04-10T03:53:26.026Z,0.50
2023-04-10T03:55:54.258Z,0.50
2023-04-10T03:58:22.580Z,0.60
2023-04-10T04:00:50.266Z,0.60
2023-04-10T04:03:35.238Z,0.60
2023-04-10T04:06:20.291Z,0.60
2023-04-10T04:09:08.081Z,0.60
2023-04-10T04:11:56.486Z,0.60
2023-04-10T04:14:35.406Z,0.60
2023-04-10T04:17:26.528Z,0.60
2023-04-10T04:20:16.066Z,0.50
2023-04-10T04:23:00.258Z,0.40
2023-04-10T04:25:57.731Z,0.40
2023-04-10T04:28:42.907Z,0.30
2023-04-10T04:31:20.859Z,0.30
2023-04-10T04:34:04.857Z,0.30
2023-04-10T04:37:03.526Z,0.30
2023-04-10T04:39:51.348Z,0.30
2023-04-10T04:42:34.560Z,0.30
2023-04-10T04:45:21.759Z,0.30
2023-04-10T04:48:14.627Z,0.40
2023-04-10T04:50:52.974Z,0.30
2023-04-10T04:53:38.503Z,0.30
2023-04-10T04:56:31.500Z,0.40
2023-04-10T04:59:16.899Z,0.40
2023-04-10T05:02:16.729Z,0.40
2023-04-10T05:05:08.305Z,0.40
2023-04-10T05:07:45.942Z,0.40
2023-04-10T05:10:39.064Z,0.50
2023-04-10T05:13:34.827Z,0.40
2023-04-10T05:16:20.246Z,0.40
2023-04-10T05:19:05.445Z,0.50
2023-04-10T05:21:41.192Z,0.60
2023-04-10T05:24:46.172Z,0.60
2023-04-10T05:27:22.547Z,0.70
2023-04-10T05:30:08.567Z,0.70
2023-04-10T05:32:50.122Z,0.80
2023-04-10T05:35:35.304Z,0.80
2023-04-10T05:38:20.880Z,0.90
2023-04-10T05:41:07.536Z,1.00
2023-04-10T05:43:40.509Z,1.00
2023-04-10T05:46:25.391Z,1.10
2023-04-10T05:49:06.065Z,1.10
2023-04-10T05:51:53.531Z,1.20
2023-04-10T05:54:43.322Z,1.30
2023-04-10T05:57:29.802Z,1.30
2023-04-10T06:00:21.481Z,1.40
2023-04-10T06:03:06.883Z,1.40
2023-04-10T06:05:44.346Z,1.50
2023-04-10T06:08:11.391Z,1.50
2023-04-10T06:10:38.238Z,1.50
2023-04-10T06:13:04.993Z,1.70
2023-04-10T06:15:31.796Z,1.80
2023-04-10T06:17:58.619Z,1.80
2023-04-10T06:20:25.399Z,1.90
2023-04-10T06:22:52.077Z,2.00
2023-04-10T06:25:18.832Z,2.10
2023-04-10T06:27:46.055Z,2.10
2023-04-10T06:30:13.234Z,2.20
2023-04-10T06:32:40.716Z,2.30
2023-04-10T06:35:07.941Z,2.20
2023-04-10T06:37:34.709Z,2.30
2023-04-10T06:40:10.851Z,2.40
2023-04-10T06:42:38.226Z,2.50
2023-04-10T06:45:13.802Z,2.70
2023-04-10T06:47:40.585Z,2.90
2023-04-10T06:50:07.436Z,3.10
2023-04-10T06:52:34.091Z,3.20
2023-04-10T06:55:00.907Z,3.30
2023-04-10T06:57:28.613Z,3.50
2023-04-10T06:59:55.617Z,3.60
2023-04-10T07:02:22.462Z,3.60
2023-04-10T07:04:49.983Z,3.80
2023-04-10T07:07:17.971Z,3.90
2023-04-10T07:09:44.774Z,4.00
2023-04-10T07:12:11.423Z,4.00
2023-04-10T07:14:38.097Z,4.00
2023-04-10T07:17:04.808Z,4.10
2023-04-10T07:19:31.576Z,4.30
2023-04-10T07:21:58.237Z,4.40
2023-04-10T07:24:25.082Z,4.50
2023-04-10T07:26:51.994Z,4.70
2023-04-10T07:29:19.147Z,4.80
2023-04-10T07:31:45.890Z,5.00
2023-04-10T07:34:12.674Z,5.00
2023-04-10T07:36:39.407Z,5.10
2023-04-10T07:39:06.314Z,5.20
2023-04-10T07:41:33.080Z,5.30
2023-04-10T07:43:59.736Z,5.40
2023-04-10T07:46:27.562Z,5.60
2023-04-10T07:48:55.627Z,5.60
2023-04-10T07:51:22.913Z,5.70
2023-04-10T07:53:49.778Z,5.90
2023-04-10T07:56:20.736Z,6.00
2023-04-10T07:58:47.787Z,6.10
2023-04-10T08:01:15.589Z,6.30
2023-04-10T08:03:44.181Z,6.50
2023-04-10T08:06:12.266Z,6.60
2023-04-10T08:08:40.381Z,6.70
2023-04-10T08:11:28.385Z,6.90
2023-04-10T08:14:01.818Z,6.90
2023-04-10T08:16:33.684Z,7.00
2023-04-10T08:19:01.467Z,7.10
2023-04-10T08:21:29.769Z,7.20
2023-04-10T08:23:58.813Z,7.20
2023-04-10T08:26:26.978Z,7.30
2023-04-10T08:28:56.391Z,7.60
2023-04-10T08:31:24.682Z,7.80
2023-04-10T08:33:52.071Z,7.90
2023-04-10T08:36:20.428Z,8.00
2023-04-10T08:38:48.006Z,8.10
2023-04-10T08:41:15.674Z,8.20
2023-04-10T08:43:43.523Z,8.30
2023-04-10T08:46:11.090Z,8.40
2023-04-10T08:48:38.959Z,8.50
2023-04-10T08:51:10.815Z,8.60
2023-04-10T08:53:44.912Z,8.70
2023-04-10T08:56:16.551Z,8.70
2023-04-10T08:58:43.732Z,8.70
2023-04-10T09:01:11.739Z,8.70
2023-04-10T09:03:39.174Z,9.00
2023-04-10T09:06:06.520Z,9.10
2023-04-10T09:08:34.065Z,9.20
2023-04-10T09:11:00.785Z,9.30
2023-04-10T09:13:41.731Z,9.40
2023-04-10T09:16:09.911Z,9.60
2023-04-10T09:18:44.965Z,9.70
2023-04-10T09:21:14.192Z,9.90
2023-04-10T09:23:43.134Z,10.10
2023-04-10T09:26:26.657Z,10.20
2023-04-10T09:29:04.421Z,10.30
2023-04-10T09:31:35.975Z,10.40
2023-04-10T09:34:22.225Z,10.50
2023-04-10T09:36:57.005Z,10.60
2023-04-10T09:39:44.266Z,10.60
2023-04-10T09:42:14.940Z,10.60
2023-04-10T09:44:42.427Z,10.70
2023-04-10T09:47:18.570Z,10.80
2023-04-10T09:49:55.687Z,11.00
2023-04-10T09:52:29.309Z,11.00
2023-04-10T09:55:02.072Z,11.00
2023-04-10T09:57:32.067Z,11.20
2023-04-10T10:00:01.265Z,11.30
2023-04-10T10:02:34.380Z,11.20
2023-04-10T10:05:02.603Z,11.30
2023-04-10T10:07:31.124Z,11.30
2023-04-10T10:09:58.852Z,11.30
2023-04-10T10:12:41.155Z,11.30
2023-04-10T10:15:22.883Z,11.40
2023-04-10T10:18:26.281Z,11.60
2023-04-10T10:20:53.589Z,11.70
2023-04-10T10:23:21.693Z,11.50
2023-04-10T10:25:50.364Z,11.40
2023-04-10T10:28:18.920Z,11.60
2023-04-10T10:30:47.103Z,11.80
2023-04-10T10:33:14.583Z,12.10
2023-04-10T10:35:42.156Z,12.20
2023-04-10T10:38:09.956Z,12.30
2023-04-10T10:41:06.233Z,12.30
2023-04-10T10:43:44.448Z,12.30
2023-04-10T10:46:17.103Z,12.50
2023-04-10T10:48:57.864Z,12.50
2023-04-10T10:51:42.267Z,12.60
2023-04-10T10:54:27.519Z,12.80
2023-04-10T10:56:54.212Z,13.00
2023-04-10T10:59:48.590Z,12.90
2023-04-10T11:02:16.917Z,12.80
2023-04-10T11:04:49.826Z,12.80
2023-04-10T11:07:17.160Z,13.10
2023-04-10T11:09:51.701Z,13.20
2023-04-10T11:12:21.345Z,13.40
2023-04-10T11:15:02.225Z,13.40
2023-04-10T11:17:51.842Z,13.40
2023-04-10T11:20:21.830Z,13.20
2023-04-10T11:23:11.182Z,13.20
2023-04-10T11:25:53.681Z,13.20
2023-04-10T11:28:35.483Z,13.20
2023-04-10T11:31:22.987Z,13.10
2023-04-10T11:34:00.931Z,13.40
2023-04-10T11:36:28.174Z,13.50
2023-04-10T11:39:10.383Z,13.70
2023-04-10T11:41:39.048Z,13.70
2023-04-10T11:44:08.041Z,13.60
2023-04-10T11:46:44.305Z,13.60
2023-04-10T11:49:11.388Z,13.70
2023-04-10T11:51:39.648Z,13.90
2023-04-10T11:54:16.770Z,13.80
2023-04-10T11:56:54.620Z,13.80
2023-04-10T11:59:21.243Z,13.50
2023-04-10T12:01:47.999Z,13.60
2023-04-10T12:04:19.744Z,13.80
2023-04-10T12:06:48.250Z,14.00
2023-04-10T12:09:17.155Z,14.20
2023-04-10T12:12:02.974Z,14.10
2023-04-10T12:14:41.673Z,14.20
2023-04-10T12:17:13.028Z,14.10
2023-04-10T12:19:40.146Z,14.30
2023-04-10T12:22:07.563Z,14.30
2023-04-10T12:24:44.710Z,14.10
2023-04-10T12:27:18.160Z,14.30
2023-04-10T12:29:46.409Z,14.40
2023-04-10T12:32:13.859Z,14.40
2023-04-10T12:34:41.153Z,14.40
2023-04-10T12:37:09.673Z,14.30
2023-04-10T12:39:36.458Z,14.40
2023-04-10T12:42:12.219Z,14.50
2023-04-10T12:44:57.738Z,14.60
2023-04-10T12:47:25.576Z,14.90
2023-04-10T12:50:13.430Z,15.00
2023-04-10T12:53:01.206Z,15.10
2023-04-10T12:55:28.894Z,14.90
2023-04-10T12:57:56.769Z,15.00
2023-04-10T13:00:25.285Z,15.30
2023-04-10T13:02:52.248Z,15.00
2023-04-10T13:05:19.254Z,15.00
2023-04-10T13:07:46.140Z,15.00
2023-04-10T13:10:12.899Z,15.10
2023-04-10T13:12:40.665Z,15.20
2023-04-10T13:15:08.007Z,15.20
2023-04-10T13:17:35.059Z,15.30
2023-04-10T13:20:02.030Z,15.40
2023-04-10T13:22:28.718Z,15.30
2023-04-10T13:24:55.396Z,15.40
2023-04-10T13:27:22.077Z,15.30
2023-04-10T13:29:48.754Z,15.40
2023-04-10T13:32:15.550Z,15.50
2023-04-10T13:34:42.236Z,15.60
2023-04-10T13:37:12.997Z,15.70
2023-04-10T13:39:39.725Z,15.80
2023-04-10T13:42:06.485Z,15.80
2023-04-10T13:44:33.220Z,15.90
2023-04-10T13:46:59.943Z,15.90
2023-04-10T13:49:30.161Z,15.90
2023-04-10T13:51:57.571Z,15.90
2023-04-10T13:54:24.270Z,16.00
2023-04-10T13:56:51.133Z,16.10
2023-04-10T13:59:17.784Z,16.20
2023-04-10T14:01:44.520Z,16.10
2023-04-10T14:04:11.397Z,16.10
2023-04-10T14:06:38.035Z,16.20
2023-04-10T14:09:04.874Z,16.20
2023-04-10T14:11:31.548Z,16.30
2023-04-10T14:13:58.364Z,16.40
2023-04-10T14:16:25.044Z,16.20
2023-04-10T14:18:51.757Z,16.10
2023-04-10T14:21:20.490Z,16.10
2023-04-10T14:23:47.760Z,16.20
2023-04-10T14:26:14.452Z,16.30
2023-04-10T14:28:41.163Z,16.30
2023-04-10T14:31:08.028Z,16.10
2023-04-10T14:33:35.254Z,16.10
2023-04-10T14:36:01.990Z,16.20
2023-04-10T14:38:28.672Z,16.20
2023-04-10T14:40:55.361Z,16.30
2023-04-10T14:43:22.042Z,16.20
2023-04-10T14:45:48.749Z,16.30
2023-04-10T14:48:15.735Z,16.30
2023-04-10T14:50:42.425Z,16.40
2023-04-10T14:53:09.959Z,16.60
2023-04-10T14:55:37.264Z,16.60
2023-04-10T14:58:04.616Z,16.50
2023-04-10T15:00:31.919Z,16.40
2023-04-10T15:02:59.053Z,16.30
2023-04-10T15:05:26.077Z,16.30
2023-04-10T15:07:52.914Z,16.30
2023-04-10T15:10:19.698Z,16.30
2023-04-10T15:12:46.359Z,16.20
2023-04-10T15:15:13.005Z,16.30
2023-04-10T15:17:39.720Z,16.20
2023-04-10T15:20:06.892Z,16.00
2023-04-10T15:22:35.523Z,15.80
2023-04-10T15:25:02.382Z,15.80
2023-04-10T15:27:29.019Z,15.90
2023-04-10T15:29:55.738Z,16.00
2023-04-10T15:32:22.587Z,16.00
2023-04-10T15:34:49.354Z,16.10
2023-04-10T15:37:16.127Z,16.00
2023-04-10T15:39:42.859Z,16.00
2023-04-10T15:42:09.520Z,16.00
2023-04-10T15:44:36.236Z,16.00
2023-04-10T15:47:03.394Z,16.10
2023-04-10T15:49:37.733Z,16.10
2023-04-10T15:52:05.793Z,16.10
2023-04-10T15:54:34.155Z,16.10
2023-04-10T15:57:01.927Z,16.20
2023-04-10T15:59:28.698Z,16.20
2023-04-10T16:01:55.582Z,16.10
2023-04-10T16:04:22.634Z,15.90
2023-04-10T16:06:49.421Z,15.80
2023-04-10T16:09:25.753Z,15.70
2023-04-10T16:11:53.892Z,15.60
2023-04-10T16:14:20.714Z,15.50
2023-04-10T16:16:47.497Z,15.50
2023-04-10T16:19:14.257Z,15.50
2023-04-10T16:21:42.625Z,15.70
2023-04-10T16:24:09.285Z,16.30
2023-04-10T16:26:35.973Z,17.00
2023-04-10T16:29:02.639Z,17.50
2023-04-10T16:31:29.376Z,17.70
2023-04-10T16:33:56.502Z,18.00
2023-04-10T16:36:23.537Z,18.00
2023-04-10T16:38:50.356Z,18.20
2023-04-10T16:41:18.267Z,18.50
2023-04-10T16:43:45.103Z,18.30
2023-04-10T16:46:12.032Z,17.70
2023-04-10T16:48:38.818Z,17.00
2023-04-10T16:51:06.765Z,16.50
2023-04-10T16:53:35.714Z,16.00
2023-04-10T16:56:04.885Z,15.50
2023-04-10T16:58:33.312Z,15.20
2023-04-10T17:01:00.161Z,14.80
2023-04-10T17:03:26.906Z,14.40
2023-04-10T17:05:53.701Z,14.00
2023-04-10T17:08:20.389Z,13.80
2023-04-10T17:10:47.050Z,13.50
2023-04-10T17:13:13.757Z,13.30
2023-04-10T17:15:40.484Z,13.20
2023-04-10T17:18:07.182Z,13.00
2023-04-10T17:20:37.138Z,12.90
2023-04-10T17:23:03.954Z,12.80
2023-04-10T17:25:31.024Z,12.60
2023-04-10T17:27:58.015Z,12.50
2023-04-10T17:30:24.771Z,12.40
2023-04-10T17:32:51.541Z,12.20
2023-04-10T17:35:18.428Z,12.10
2023-04-10T17:37:45.102Z,12.00
2023-04-10T17:40:12.272Z,11.90
2023-04-10T17:42:38.999Z,11.80
2023-04-10T17:45:06.267Z,11.70
2023-04-10T17:47:32.885Z,11.60
2023-04-10T17:49:59.566Z,11.50
2023-04-10T17:52:26.358Z,11.30
2023-04-10T17:54:53.046Z,11.20
2023-04-10T17:57:19.836Z,11.10
2023-04-10T17:59:46.531Z,10.90
2023-04-10T18:02:13.287Z,10.80
2023-04-10T18:04:40.089Z,10.70
2023-04-10T18:07:06.782Z,10.60
2023-04-10T18:09:33.435Z,10.60
2023-04-10T18:12:01.334Z,10.50
2023-04-10T18:14:28.048Z,10.30
2023-04-10T18:16:54.856Z,10.30
2023-04-10T18:19:21.555Z,10.20
2023-04-10T18:21:48.231Z,10.20
2023-04-10T18:24:15.084Z,10.20
2023-04-10T18:26:41.815Z,10.10
2023-04-10T18:29:08.505Z,10.00
2023-04-10T18:31:35.166Z,10.10
2023-04-10T18:34:07.565Z,10.00
2023-04-10T18:36:35.554Z,10.00
2023-04-10T18:39:02.285Z,9.90
2023-04-10T18:41:28.968Z,9.90
2023-04-10T18:44:04.207Z,9.80
2023-04-10T18:46:33.146Z,9.70
2023-04-10T18:49:00.986Z,9.60
2023-04-10T18:51:28.162Z,9.70
2023-04-10T18:53:55.595Z,9.70
2023-04-10T18:56:22.568Z,9.60
2023-04-10T18:58:50.133Z,9.50
2023-04-10T19:01:20.166Z,9.50
2023-04-10T19:03:49.382Z,9.50
2023-04-10T19:06:17.723Z,9.40
2023-04-10T19:08:44.409Z,9.40
2023-04-10T19:11:11.253Z,9.40
2023-04-10T19:13:38.029Z,9.30
2023-04-10T19:16:05.416Z,9.40
2023-04-10T19:18:32.291Z,9.30
2023-04-10T19:20:59.380Z,9.30
2023-04-10T19:23:26.560Z,9.20
2023-04-10T19:25:54.513Z,9.20
2023-04-10T19:28:23.070Z,9.10
2023-04-10T19:30:50.030Z,9.10
2023-04-10T19:33:17.167Z,9.10
2023-04-10T19:35:43.968Z,9.10
2023-04-10T19:38:10.774Z,9.00
2023-04-10T19:40:37.552Z,9.00
2023-04-10T19:43:04.340Z,9.00
2023-04-10T19:45:32.463Z,9.00
2023-04-10T19:47:59.915Z,8.90
2023-04-10T19:50:29.513Z,8.90
2023-04-10T19:52:56.340Z,8.80
2023-04-10T19:55:23.366Z,8.80
2023-04-10T19:57:50.670Z,8.60
2023-04-10T20:00:17.765Z,8.60
2023-04-10T20:02:44.769Z,8.50
2023-04-10T20:05:11.809Z,8.50
2023-04-10T20:07:38.682Z,8.50
2023-04-10T20:10:06.094Z,8.50
2023-04-10T20:12:35.652Z,8.40
2023-04-10T20:18:36.492Z,8.30
2023-04-10T20:21:04.568Z,8.30
2023-04-10T20:23:31.198Z,8.30
2023-04-10T20:25:58.008Z,8.30
2023-04-10T20:28:24.736Z,8.30
2023-04-10T20:30:51.456Z,8.30
2023-04-10T20:33:18.126Z,8.30
2023-04-10T20:35:44.801Z,8.30
2023-04-10T20:38:11.779Z,8.30
2023-04-10T20:40:38.441Z,8.30
2023-04-10T20:43:10.879Z,8.30
2023-04-10T20:45:38.353Z,8.30
2023-04-10T20:48:05.374Z,8.30
2023-04-10T20:50:32.133Z,8.20
2023-04-10T20:52:58.786Z,8.20
2023-04-10T20:55:25.616Z,8.10
2023-04-10T20:57:53.223Z,8.10
2023-04-10T21:00:20.084Z,8.10
2023-04-10T21:02:47.172Z,8.10
2023-04-10T21:05:14.120Z,8.10
2023-04-10T21:07:40.872Z,8.10
2023-04-10T21:10:07.864Z,8.20
2023-04-10T21:12:34.518Z,8.20
2023-04-10T21:15:01.170Z,8.30
2023-04-10T21:17:31.146Z,8.30
2023-04-10T21:19:59.097Z,8.20
2023-04-10T21:22:28.677Z,8.20
2023-04-10T21:24:56.007Z,8.20
2023-04-10T21:27:22.733Z,8.10
2023-04-10T21:29:49.411Z,8.10
2023-04-10T21:32:16.117Z,8.10
2023-04-10T21:34:42.832Z,8.10
2023-04-10T21:37:09.595Z,8.20
2023-04-10T21:39:40.523Z,8.10
2023-04-10T21:42:07.537Z,8.10
2023-04-10T21:44:34.316Z,8.00
2023-04-10T21:47:01.327Z,8.00
2023-04-10T21:49:27.984Z,7.90
2023-04-10T21:51:54.956Z,7.80
2023-04-10T21:54:21.652Z,7.70
2023-04-10T21:56:48.308Z,7.60
2023-04-10T21:59:14.959Z,7.60
2023-04-10T22:01:41.853Z,7.50
2023-04-10T22:04:08.768Z,7.50
2023-04-10T22:06:35.521Z,7.50
2023-04-10T22:09:02.245Z,7.50
2023-04-10T22:11:28.979Z,7.50
2023-04-10T22:13:58.053Z,7.50
2023-04-10T22:16:24.915Z,7.50
2023-04-10T22:18:51.750Z,7.50
2023-04-10T22:21:18.585Z,7.40
2023-04-10T22:23:45.242Z,7.40
2023-04-10T22:26:12.079Z,7.30
2023-04-10T22:28:38.861Z,7.20
2023-04-10T22:31:05.710Z,7.20
2023-04-10T22:33:33.346Z,7.10
2023-04-10T22:36:00.213Z,7.00
2023-04-10T22:38:26.926Z,7.10
2023-04-10T22:40:55.037Z,7.10
2023-04-10T22:43:21.755Z,7.20
2023-04-10T22:45:48.471Z,7.20
2023-04-10T22:48:15.335Z,7.30
2023-04-10T22:50:42.039Z,7.40
2023-04-10T22:53:10.596Z,7.30
2023-04-10T22:55:38.643Z,7.20
2023-04-10T22:58:05.827Z,7.10
2023-04-10T23:00:35.495Z,7.00
2023-04-10T23:03:02.445Z,7.00
2023-04-10T23:05:29.369Z,6.80
2023-04-10T23:07:56.120Z,6.80
2023-04-10T23:10:22.874Z,6.70
2023-04-10T23:12:49.603Z,6.70
2023-04-10T23:15:16.343Z,6.70
2023-04-10T23:17:43.016Z,6.70
2023-04-10T23:20:10.377Z,6.70
2023-04-10T23:22:37.005Z,6.60
2023-04-10T23:25:03.778Z,6.50
2023-04-10T23:27:30.565Z,6.60
2023-04-10T23:29:57.403Z,6.60
2023-04-10T23:32:24.151Z,6.70
2023-04-10T23:34:50.843Z,6.80
2023-04-10T23:37:17.501Z,6.80
2023-04-10T23:39:44.163Z,6.80
2023-04-10T23:42:10.888Z,6.90
2023-04-10T23:44:37.562Z,6.90
2023-04-10T23:47:04.453Z,6.90
2023-04-10T23:49:31.129Z,6.90
2023-04-10T23:51:57.844Z,6.80
2023-04-10T23:54:24.539Z,6.80
2023-04-10T23:56:51.199Z,6.80
2023-04-10T23:59:19.086Z,6.80
